Bei Facebook empfehlenBei Twitter postenGoogle plusPinterest

Das Wetter im Erzgebirge am 26.01.2017

Wetter und Klima am 26.01.2017 Holzhau im Erzgebirge (630m ü.NN)
Letzte gemessene Temperatur und Uhrzeit der Messung23:45:00 Uhr-5.70 °C
Temperatur (Maximum / Höchstwert) und Uhrzeit der Messung14:00:00 Uhr-2.10 °C
Temperatur (Minimum / Tiefstwert) und Uhrzeit der Messung23:45:00-5.70 °C
Errechneter Absolutwert der Temperaturschwankungen zwischen Tmin und Tmax des Tages3.60 K
Errechnete Tagesmitteltemperatur-3.97292 °C
Gesamt - Niederschlag des Tages (in flüssiger Form)0.00 Liter / m²
Luftdruck (Maximum / Höchstwert) und Zeitpunkt der Messung02:15:00 Uhr1024.80 hPa
Luftdruck (Minimum / Tiefstwert) und Zeitpunkt der Messung23:45:00 Uhr1020.60 hPa
Errechneter Absolutwert der Luftdruckschwankungen des Tages4.20 hPa
Höchste gemessene Windgeschwindigkeit und Uhrzeit der Messung15:00:00 Uhr21.24 km/h
Errechnete Windhäufigkeit in Relation zu den Messwerten des Tages72.91667 %
Niedrigste Windkühle (Windchill) und Zeitpunkt der Messung22:30:00 Uhr-11.60 °C
Taupunkt (Maximum / Höchstwert) und Uhrzeit der Messung14:00:00 Uhr-5.30 °C
Taupunkt (Minimum / Tiefstwert) und Uhrzeit der Messung23:45:00-8.20 °C
Anzahl der automatisch eingelesenen Messwerte 96

Detaillierte Wetter- und Klima- Messwerte für den 26.01.2017 in Holzhau im Erzgebirge (630m ü.NN)
ZeitTemperaturLuftdruckRel. LuftfeuchteWindWindrichtungWindchillTaupunktNiederschlag l/m²
23:45:00-5.70 °C1020.60 hPa84.00 %15.12 km/hS-11.50 °C-8.20 °C 
23:30:00-5.60 °C1020.60 hPa84.00 %11.52 km/hSSW-10.50 °C-8.10 °C 
23:15:00-5.60 °C1020.70 hPa84.00 %7.92 km/hSSO-9.30 °C-8.10 °C 
23:00:00-5.50 °C1020.80 hPa84.00 %11.52 km/hSSW-10.30 °C-8.00 °C 
22:45:00-5.40 °C1020.70 hPa84.00 %9.36 km/hS-9.60 °C-7.90 °C 
22:30:00-5.30 °C1020.80 hPa84.00 %18.00 km/hSSO-11.60 °C-7.80 °C 
22:15:00-5.40 °C1021.10 hPa84.00 %12.24 km/hSSW-10.40 °C-7.90 °C 
22:00:00-5.20 °C1021.20 hPa84.00 %7.92 km/hSO-8.80 °C-7.80 °C 
21:45:00-5.20 °C1021.20 hPa84.00 %11.52 km/hS-10.00 °C-7.80 °C 
21:30:00-5.10 °C1021.40 hPa84.00 %15.84 km/hSSO-10.90 °C-7.70 °C 
21:15:00-5.10 °C1021.40 hPa85.00 %8.28 km/hS-8.80 °C-7.50 °C 
21:00:00-5.10 °C1021.30 hPa85.00 %2.52 km/hSSO-5.10 °C-7.50 °C 
20:45:00-5.10 °C1021.60 hPa85.00 %13.68 km/hSSO-10.40 °C-7.50 °C 
20:30:00-5.10 °C1021.40 hPa85.00 %15.12 km/hS-10.70 °C-7.50 °C 
20:15:00-5.00 °C1021.40 hPa85.00 %11.52 km/hSSO-9.70 °C-7.40 °C 
20:00:00-4.90 °C1021.50 hPa85.00 %5.04 km/hSSO-7.20 °C-7.30 °C 
19:45:00-4.90 °C1021.60 hPa85.00 %7.56 km/hSSO-8.30 °C-7.30 °C 
19:30:00-4.80 °C1021.90 hPa85.00 %11.16 km/hSSO-9.40 °C-7.20 °C 
19:15:00-4.70 °C1022.00 hPa85.00 %9.36 km/hSO-8.70 °C-7.10 °C 
19:00:00-4.70 °C1022.10 hPa85.00 %2.52 km/hS-4.70 °C-7.10 °C 
18:45:00-4.70 °C1022.10 hPa85.00 %6.48 km/hSSO-7.60 °C-7.10 °C 
18:30:00-4.70 °C1022.20 hPa85.00 %-7.10 °C 
18:15:00-4.60 °C1022.10 hPa85.00 %17.28 km/hSSO-10.60 °C-7.00 °C 
18:00:00-4.60 °C1022.20 hPa85.00 %17.28 km/hS-10.60 °C-7.00 °C 
17:45:00-4.50 °C1022.20 hPa85.00 %10.08 km/hS-8.70 °C-6.90 °C 
17:30:00-4.40 °C1022.30 hPa84.00 %10.80 km/hSSO-8.80 °C-7.00 °C 
17:15:00-4.30 °C1022.20 hPa84.00 %17.64 km/hS-10.20 °C-6.90 °C 
17:00:00-4.10 °C1022.20 hPa83.00 %10.08 km/hSSO-8.20 °C-6.80 °C 
16:45:00-3.90 °C1022.00 hPa83.00 %7.20 km/hSSO-7.00 °C-6.70 °C 
16:30:00-3.60 °C1022.50 hPa82.00 %6.84 km/hS-6.50 °C-6.50 °C 
16:15:00-3.40 °C1022.50 hPa81.00 %6.12 km/hSW-6.00 °C-6.50 °C 
16:00:00-3.10 °C1022.70 hPa80.00 %3.96 km/hS-3.10 °C-6.40 °C 
15:45:00-2.80 °C1022.80 hPa80.00 %3.24 km/hS-2.80 °C-6.10 °C 
15:30:00-2.70 °C1022.60 hPa80.00 %-6.00 °C 
15:15:00-2.80 °C1022.80 hPa81.00 %4.68 km/hS-2.80 °C-5.90 °C 
15:00:00-3.00 °C1023.00 hPa81.00 %21.24 km/hSW-9.20 °C-6.10 °C 
14:45:00-2.90 °C1022.90 hPa80.00 %5.40 km/hSSW-5.10 °C-6.20 °C 
14:30:00-2.70 °C1023.00 hPa79.00 %12.96 km/hSSW-7.30 °C-6.20 °C 
14:15:00-2.20 °C1023.20 hPa79.00 %12.24 km/hSSW-6.50 °C-5.70 °C 
14:00:00-2.10 °C1023.00 hPa81.00 %6.84 km/hS-4.80 °C-5.30 °C 
13:45:00-2.60 °C1022.90 hPa82.00 %17.28 km/hWSW-8.10 °C-5.60 °C 
13:30:00-3.20 °C1022.70 hPa82.00 %5.40 km/hSO-5.40 °C-6.10 °C 
13:15:00-3.20 °C1023.00 hPa82.00 %3.96 km/hSSO-3.20 °C-6.10 °C 
13:00:00-3.40 °C1023.10 hPa82.00 %7.56 km/hSSO-6.60 °C-6.30 °C 
12:45:00-3.40 °C1023.10 hPa82.00 %4.68 km/hSSW-3.40 °C-6.30 °C 
12:30:00-3.30 °C1023.10 hPa82.00 %9.72 km/hS-7.20 °C-6.20 °C 
12:15:00-3.20 °C1023.20 hPa82.00 %14.40 km/hSSO-8.20 °C-6.10 °C 
12:00:00-3.10 °C1023.30 hPa82.00 %12.60 km/hSW-7.70 °C-6.00 °C 
11:45:00-3.10 °C1023.40 hPa83.00 %7.92 km/hSSW-6.40 °C-5.90 °C 
11:30:00-3.20 °C1024.00 hPa83.00 %15.12 km/hSO-8.40 °C-6.00 °C 
11:15:00-3.30 °C1023.70 hPa83.00 %5.40 km/hSSW-5.50 °C-6.10 °C 
11:00:00-3.20 °C1023.70 hPa82.00 %4.32 km/hSO-3.20 °C-6.10 °C 
10:45:00-3.10 °C1023.60 hPa82.00 %15.48 km/hSW-8.30 °C-6.00 °C 
10:30:00-3.30 °C1023.80 hPa84.00 %9.00 km/hS-7.00 °C-5.90 °C 
10:15:00-3.40 °C1023.80 hPa84.00 %4.68 km/hS-3.40 °C-6.00 °C 
10:00:00-3.40 °C1023.70 hPa84.00 %-6.00 °C 
09:45:00-3.40 °C1023.80 hPa84.00 %7.92 km/hO-6.70 °C-6.00 °C 
09:30:00-3.60 °C1023.80 hPa85.00 %-6.00 °C 
09:15:00-3.80 °C1023.70 hPa86.00 %9.00 km/hSSW-7.50 °C-6.00 °C 
09:00:00-3.90 °C1023.70 hPa86.00 %6.48 km/hS-6.70 °C-6.10 °C 
08:45:00-4.10 °C1023.40 hPa86.00 %8.64 km/hSSO-7.80 °C-6.30 °C 
08:30:00-4.10 °C1023.30 hPa85.00 %15.48 km/hSSW-9.60 °C-6.50 °C 
08:15:00-4.20 °C1023.30 hPa85.00 %10.80 km/hS-8.60 °C-6.60 °C 
08:00:00-4.20 °C1023.30 hPa85.00 %12.96 km/hSSW-9.10 °C-6.60 °C 
07:45:00-4.10 °C1023.20 hPa85.00 %-6.50 °C 
07:30:00-4.20 °C1023.30 hPa85.00 %9.72 km/hS-8.20 °C-6.60 °C 
07:15:00-4.20 °C1023.50 hPa85.00 %1.80 km/hSSO-4.20 °C-6.60 °C 
07:00:00-4.20 °C1023.70 hPa85.00 %-6.60 °C 
06:45:00-4.20 °C1023.80 hPa85.00 %9.72 km/hSO-8.20 °C-6.60 °C 
06:30:00-4.10 °C1023.80 hPa85.00 %15.48 km/hSSW-9.60 °C-6.50 °C 
06:15:00-4.10 °C1023.90 hPa85.00 %-6.50 °C 
06:00:00-4.10 °C1023.80 hPa85.00 %-6.50 °C 
05:45:00-4.10 °C1023.80 hPa85.00 %10.80 km/hSSW-8.40 °C-6.50 °C 
05:30:00-3.90 °C1023.80 hPa85.00 %12.24 km/hS-8.60 °C-6.30 °C 
05:15:00-3.90 °C1023.80 hPa85.00 %7.56 km/hS-7.20 °C-6.30 °C 
05:00:00-3.90 °C1023.80 hPa85.00 %4.32 km/hSSW-3.90 °C-6.30 °C 
04:45:00-3.90 °C1023.80 hPa85.00 %-6.30 °C 
04:30:00-3.90 °C1024.00 hPa85.00 %-6.30 °C 
04:15:00-3.90 °C1024.10 hPa86.00 %-6.10 °C 
04:00:00-3.90 °C1024.10 hPa86.00 %-6.10 °C 
03:45:00-3.80 °C1024.20 hPa86.00 %9.72 km/hSSW-7.80 °C-6.00 °C 
03:30:00-3.80 °C1024.30 hPa86.00 %-6.00 °C 
03:15:00-3.80 °C1024.50 hPa86.00 %-6.00 °C 
03:00:00-3.70 °C1024.40 hPa86.00 %-5.90 °C 
02:45:00-3.60 °C1024.60 hPa86.00 %-5.80 °C 
02:30:00-3.60 °C1024.70 hPa86.00 %-5.80 °C 
02:15:00-3.60 °C1024.80 hPa86.00 %1.44 km/hS-3.60 °C-5.80 °C 
02:00:00-3.60 °C1024.40 hPa87.00 %-5.70 °C 
01:45:00-3.60 °C1024.80 hPa87.00 %-5.70 °C 
01:30:00-3.70 °C1024.70 hPa87.00 %-5.80 °C 
01:15:00-3.80 °C1024.80 hPa88.00 %-5.70 °C 
01:00:00-3.80 °C1024.80 hPa88.00 %-5.70 °C 
00:45:00-3.90 °C1024.40 hPa87.00 %-6.00 °C 
00:30:00-3.80 °C1024.60 hPa88.00 %-5.70 °C 
00:15:00-3.80 °C1024.70 hPa87.00 %-5.90 °C 
00:00:00-3.70 °C1024.80 hPa87.00 %-5.80 °C 

Permanenter Link zu dieser Seite: Wetter im Erzgebirge am 26.01.2017
Performance-Info: Die Erstellung der Seite / Statistik(en) / Tabelle(n) erforderte 5 Datenbankserver-Abfrage(n) und dauerte 94 Millisekunden. (Dieser Messwert ist von der Gesamt-Auslastung des Servers abhängig.)
Erzgebirge - Wetter | Erzgebirge - Wetter (Mobilgeräte) | Komplette Klimadatenbank